createdAt,value
2022-11-09T00:01:05.535Z,9.38
2022-11-09T00:03:32.431Z,9.41
2022-11-09T00:06:00.469Z,9.42
2022-11-09T00:08:28.040Z,9.45
2022-11-09T00:10:54.918Z,9.47
2022-11-09T00:13:22.452Z,9.49
2022-11-09T00:15:49.648Z,9.51
2022-11-09T00:18:16.449Z,9.53
2022-11-09T00:20:47.639Z,9.56
2022-11-09T00:23:16.862Z,9.58
2022-11-09T00:25:44.129Z,9.61
2022-11-09T00:28:11.060Z,9.62
2022-11-09T00:30:37.860Z,9.64
2022-11-09T00:33:04.635Z,9.67
2022-11-09T00:35:31.480Z,9.69
2022-11-09T00:37:58.332Z,9.71
2022-11-09T00:40:25.128Z,9.73
2022-11-09T00:42:52.016Z,9.74
2022-11-09T00:45:18.858Z,9.74
2022-11-09T00:47:45.655Z,9.76
2022-11-09T00:50:12.490Z,9.78
2022-11-09T00:52:39.318Z,9.78
2022-11-09T00:55:06.300Z,9.80
2022-11-09T00:57:33.137Z,9.82
2022-11-09T00:59:59.981Z,9.83
2022-11-09T01:02:26.778Z,9.84
2022-11-09T01:04:53.587Z,9.86
2022-11-09T01:07:20.389Z,9.88
2022-11-09T01:09:47.190Z,9.89
2022-11-09T01:12:14.004Z,9.90
2022-11-09T01:14:40.809Z,9.91
2022-11-09T01:17:07.699Z,9.92
2022-11-09T01:19:34.498Z,9.93
2022-11-09T01:22:01.286Z,9.90
2022-11-09T01:24:28.070Z,9.92
2022-11-09T01:26:55.041Z,9.94
2022-11-09T01:29:21.901Z,9.93
2022-11-09T01:31:49.159Z,9.92
2022-11-09T01:34:17.617Z,9.93
2022-11-09T01:36:44.506Z,9.95
2022-11-09T01:39:11.466Z,9.95
2022-11-09T01:41:38.277Z,9.94
2022-11-09T01:44:17.710Z,9.95
2022-11-09T01:46:53.422Z,9.96
2022-11-09T01:49:32.258Z,9.95
2022-11-09T01:52:07.914Z,9.96
2022-11-09T01:54:41.948Z,9.97
2022-11-09T01:57:14.043Z,9.97
2022-11-09T01:59:45.390Z,9.97
2022-11-09T02:02:12.728Z,9.98
2022-11-09T02:04:51.985Z,9.99
2022-11-09T02:07:20.752Z,10.00
2022-11-09T02:10:06.353Z,9.98
2022-11-09T02:12:34.665Z,10.01
2022-11-09T02:15:08.750Z,10.00
2022-11-09T02:17:36.514Z,10.01
2022-11-09T02:20:09.370Z,10.00
2022-11-09T02:22:36.256Z,10.02
2022-11-09T02:25:05.005Z,10.01
2022-11-09T02:27:32.362Z,10.01
2022-11-09T02:30:00.738Z,10.01
2022-11-09T02:32:30.007Z,10.01
2022-11-09T02:34:57.329Z,10.03
2022-11-09T02:37:31.663Z,10.03
2022-11-09T02:40:01.468Z,10.03
2022-11-09T02:42:29.205Z,10.03
2022-11-09T02:44:59.650Z,10.04
2022-11-09T02:47:26.918Z,10.03
2022-11-09T02:49:53.832Z,10.03
2022-11-09T02:52:20.646Z,10.03
2022-11-09T02:54:47.486Z,10.05
2022-11-09T02:57:14.492Z,10.04
2022-11-09T02:59:41.340Z,10.05
2022-11-09T03:02:08.214Z,10.05
2022-11-09T03:04:34.974Z,10.05
2022-11-09T03:07:01.949Z,10.03
2022-11-09T03:09:28.889Z,10.06
2022-11-09T03:11:55.737Z,10.07
2022-11-09T03:14:22.588Z,10.07
2022-11-09T03:16:50.976Z,10.07
2022-11-09T03:19:17.973Z,10.07
2022-11-09T03:21:44.811Z,10.07
2022-11-09T03:24:11.680Z,10.07
2022-11-09T03:26:38.498Z,10.06
2022-11-09T03:29:05.332Z,10.07
2022-11-09T03:31:32.165Z,10.06
2022-11-09T03:33:58.915Z,10.07
2022-11-09T03:36:25.741Z,10.07
2022-11-09T03:38:52.480Z,10.07
2022-11-09T03:41:19.274Z,10.07
2022-11-09T03:43:46.058Z,10.08
2022-11-09T03:46:12.892Z,10.07
2022-11-09T03:48:39.654Z,10.08
2022-11-09T03:51:06.409Z,10.08
2022-11-09T03:53:33.182Z,10.09
2022-11-09T03:55:59.958Z,10.09
2022-11-09T03:58:26.802Z,10.09
2022-11-09T04:00:53.595Z,10.09
2022-11-09T04:03:20.641Z,10.09
2022-11-09T04:05:47.745Z,10.09
2022-11-09T04:08:14.588Z,10.08
2022-11-09T04:10:41.404Z,10.07
2022-11-09T04:13:08.875Z,10.07
2022-11-09T04:15:35.659Z,10.05
2022-11-09T04:18:03.745Z,10.07
2022-11-09T04:20:32.433Z,10.03
2022-11-09T04:23:01.895Z,10.02
2022-11-09T04:25:32.996Z,10.03
2022-11-09T04:28:00.654Z,10.04
2022-11-09T04:30:29.276Z,10.04
2022-11-09T04:32:57.689Z,10.02
2022-11-09T04:35:25.842Z,10.03
2022-11-09T04:37:54.928Z,10.01
2022-11-09T04:40:22.519Z,10.02
2022-11-09T04:42:49.588Z,10.01
2022-11-09T04:45:16.414Z,10.00
2022-11-09T04:47:43.247Z,10.00
2022-11-09T04:50:10.932Z,10.00
2022-11-09T04:52:37.816Z,9.99
2022-11-09T04:55:05.491Z,9.99
2022-11-09T04:57:32.576Z,9.97
2022-11-09T04:59:59.478Z,9.97
2022-11-09T05:02:26.491Z,9.96
2022-11-09T05:04:53.317Z,9.96
2022-11-09T05:07:20.135Z,9.98
2022-11-09T05:09:46.935Z,9.98
2022-11-09T05:12:13.801Z,9.96
2022-11-09T05:14:40.601Z,9.97
2022-11-09T05:17:08.857Z,9.97
2022-11-09T05:19:35.781Z,9.97
2022-11-09T05:22:22.561Z,9.97
2022-11-09T05:24:51.868Z,9.97
2022-11-09T05:27:18.913Z,9.98
2022-11-09T05:29:45.690Z,9.96
2022-11-09T05:32:12.665Z,9.97
2022-11-09T05:34:39.451Z,9.97
2022-11-09T05:37:06.204Z,9.96
2022-11-09T05:39:33.520Z,9.95
2022-11-09T05:42:00.322Z,9.95
2022-11-09T05:44:27.142Z,9.96
2022-11-09T05:46:53.995Z,9.95
2022-11-09T05:49:20.778Z,9.94
2022-11-09T05:51:47.617Z,9.97
2022-11-09T05:54:14.454Z,9.96
2022-11-09T05:56:41.267Z,9.95
2022-11-09T05:59:08.986Z,9.95
2022-11-09T06:01:35.761Z,9.94
2022-11-09T06:04:02.543Z,9.93
2022-11-09T06:06:30.130Z,9.93
2022-11-09T06:08:57.034Z,9.92
2022-11-09T06:11:24.616Z,9.92
2022-11-09T06:13:52.653Z,9.91
2022-11-09T06:16:19.554Z,9.90
2022-11-09T06:18:46.514Z,9.91
2022-11-09T06:21:13.404Z,9.91
2022-11-09T06:23:40.266Z,9.93
2022-11-09T06:26:10.075Z,9.94
2022-11-09T06:28:38.128Z,9.95
2022-11-09T06:31:07.084Z,9.95
2022-11-09T06:33:35.518Z,9.96
2022-11-09T06:36:03.129Z,9.95
2022-11-09T06:38:30.237Z,9.94
2022-11-09T06:40:59.739Z,9.95
2022-11-09T06:43:27.436Z,9.94
2022-11-09T06:45:54.872Z,9.95
2022-11-09T06:48:21.976Z,9.93
2022-11-09T06:50:48.897Z,9.94
2022-11-09T06:53:17.166Z,9.96
2022-11-09T06:55:49.050Z,9.97
2022-11-09T06:58:17.494Z,9.97
2022-11-09T07:00:45.171Z,9.97
2022-11-09T07:03:18.944Z,9.96
2022-11-09T07:05:46.761Z,9.97
2022-11-09T07:08:14.885Z,9.97
2022-11-09T07:10:42.357Z,9.97
2022-11-09T07:13:10.284Z,9.97
2022-11-09T07:15:38.460Z,9.98
2022-11-09T07:18:08.136Z,9.99
2022-11-09T07:20:34.969Z,9.99
2022-11-09T07:23:01.771Z,10.00
2022-11-09T07:25:28.657Z,9.99
2022-11-09T07:27:55.585Z,10.01
2022-11-09T07:30:22.448Z,10.00
2022-11-09T07:35:36.107Z,10.05
2022-11-09T07:38:02.950Z,10.05
2022-11-09T07:40:30.713Z,10.06
2022-11-09T07:43:01.809Z,10.08
2022-11-09T07:45:30.054Z,10.09
2022-11-09T07:47:58.614Z,10.09
2022-11-09T07:50:26.778Z,10.10
2022-11-09T07:52:56.495Z,10.12
2022-11-09T07:55:24.613Z,10.11
2022-11-09T07:57:59.454Z,10.13
2022-11-09T08:00:27.891Z,10.14
2022-11-09T08:02:55.231Z,10.14
2022-11-09T08:05:22.150Z,10.16
2022-11-09T08:07:49.210Z,10.16
2022-11-09T08:10:16.388Z,10.19
2022-11-09T08:12:43.261Z,10.20
2022-11-09T08:15:10.600Z,10.21
2022-11-09T08:17:37.391Z,10.21
2022-11-09T08:20:04.517Z,10.22
2022-11-09T08:22:31.263Z,10.25
2022-11-09T08:24:58.052Z,10.25
2022-11-09T08:27:25.083Z,10.28
2022-11-09T08:29:51.819Z,10.29
2022-11-09T08:32:18.608Z,10.30
2022-11-09T08:34:48.796Z,10.31
2022-11-09T08:37:16.251Z,10.34
2022-11-09T08:39:43.264Z,10.37
2022-11-09T08:42:10.057Z,10.37
2022-11-09T08:44:36.882Z,10.39
2022-11-09T08:47:03.761Z,10.40
2022-11-09T08:49:30.581Z,10.41
2022-11-09T08:51:57.339Z,10.44
2022-11-09T08:54:24.348Z,10.43
2022-11-09T08:56:51.130Z,10.46
2022-11-09T08:59:17.893Z,10.47
2022-11-09T09:01:44.790Z,10.46
2022-11-09T09:04:11.590Z,10.48
2022-11-09T09:06:38.543Z,10.50
2022-11-09T09:09:05.455Z,10.52
2022-11-09T09:11:32.256Z,10.53
2022-11-09T09:13:59.020Z,10.56
2022-11-09T09:16:25.918Z,10.57
2022-11-09T09:18:52.777Z,10.58
2022-11-09T09:21:19.545Z,10.61
2022-11-09T09:23:49.516Z,10.63
2022-11-09T09:26:16.926Z,10.64
2022-11-09T09:28:43.952Z,10.66
2022-11-09T09:31:14.347Z,10.69
2022-11-09T09:33:44.955Z,10.70
2022-11-09T09:36:17.887Z,10.73
2022-11-09T09:38:44.776Z,10.76
2022-11-09T09:41:22.415Z,10.79
2022-11-09T09:43:52.897Z,10.83
2022-11-09T09:46:43.642Z,10.85
2022-11-09T09:49:26.357Z,10.89
2022-11-09T09:52:17.999Z,10.91
2022-11-09T09:55:03.545Z,10.93
2022-11-09T09:57:31.442Z,10.96
2022-11-09T10:00:02.290Z,10.96
2022-11-09T10:02:34.520Z,10.98
2022-11-09T10:05:08.533Z,10.99
2022-11-09T10:07:37.955Z,11.00
2022-11-09T10:10:10.479Z,11.02
2022-11-09T10:12:59.218Z,11.03
2022-11-09T10:15:50.092Z,11.06
2022-11-09T10:18:35.230Z,11.08
2022-11-09T10:21:39.389Z,11.08
2022-11-09T10:24:18.989Z,11.12
2022-11-09T10:26:45.752Z,11.13
2022-11-09T10:29:26.102Z,11.17
2022-11-09T10:31:56.065Z,11.18
2022-11-09T10:35:03.034Z,11.21
2022-11-09T10:37:43.181Z,11.23
2022-11-09T10:40:24.537Z,11.27
2022-11-09T10:42:56.656Z,11.29
2022-11-09T10:45:36.269Z,11.31
2022-11-09T10:48:05.201Z,11.34
2022-11-09T10:50:39.292Z,11.36
2022-11-09T10:53:26.684Z,11.40
2022-11-09T10:55:58.047Z,11.43
2022-11-09T10:58:49.299Z,11.45
2022-11-09T11:01:22.962Z,11.47
2022-11-09T11:03:52.860Z,11.49
2022-11-09T11:06:22.665Z,11.51
2022-11-09T11:09:12.495Z,11.53
2022-11-09T11:11:39.832Z,11.57
2022-11-09T11:14:23.293Z,11.58
2022-11-09T11:16:53.358Z,11.61
2022-11-09T11:19:26.334Z,11.63
2022-11-09T11:22:11.474Z,11.66
2022-11-09T11:24:58.761Z,11.69
2022-11-09T11:27:46.798Z,11.70
2022-11-09T11:30:18.335Z,11.74
2022-11-09T11:32:50.105Z,11.76
2022-11-09T11:35:48.529Z,11.77
2022-11-09T11:38:21.709Z,11.79
2022-11-09T11:41:11.730Z,11.81
2022-11-09T11:44:03.320Z,11.83
2022-11-09T11:46:54.056Z,11.83
2022-11-09T11:49:34.381Z,11.85
2022-11-09T11:52:27.396Z,11.86
2022-11-09T11:55:21.651Z,11.87
2022-11-09T11:58:14.174Z,11.87
2022-11-09T12:01:12.372Z,11.87
2022-11-09T12:04:03.823Z,11.89
2022-11-09T12:06:44.021Z,11.91
2022-11-09T12:09:32.898Z,11.90
2022-11-09T12:12:08.058Z,11.90
2022-11-09T12:15:02.616Z,11.92
2022-11-09T12:17:38.068Z,11.93
2022-11-09T12:20:28.855Z,11.94
2022-11-09T12:23:11.387Z,11.96
2022-11-09T12:26:04.389Z,11.98
2022-11-09T12:28:52.640Z,11.98
2022-11-09T12:31:38.323Z,11.97
2022-11-09T12:34:43.406Z,11.98
2022-11-09T12:37:16.261Z,12.00
2022-11-09T12:39:48.097Z,11.99
2022-11-09T12:42:24.651Z,12.01
2022-11-09T12:45:12.986Z,12.02
2022-11-09T12:47:44.957Z,12.03
2022-11-09T12:50:17.757Z,12.04
2022-11-09T12:52:47.372Z,12.05
2022-11-09T12:55:16.790Z,12.04
2022-11-09T12:57:46.757Z,12.05
2022-11-09T13:00:33.946Z,12.05
2022-11-09T13:03:04.326Z,12.06
2022-11-09T13:05:38.891Z,12.06
2022-11-09T13:08:08.722Z,12.07
2022-11-09T13:10:37.771Z,12.07
2022-11-09T13:13:10.327Z,12.08
2022-11-09T13:15:38.935Z,12.08
2022-11-09T13:18:35.178Z,12.09
2022-11-09T13:21:24.845Z,12.09
2022-11-09T13:24:02.760Z,12.08
2022-11-09T13:26:31.542Z,12.09
2022-11-09T13:29:15.172Z,12.10
2022-11-09T13:32:20.500Z,12.09
2022-11-09T13:34:55.534Z,12.07
2022-11-09T13:37:47.609Z,12.10
2022-11-09T13:40:32.961Z,12.09
2022-11-09T13:43:08.703Z,12.09
2022-11-09T13:45:38.343Z,12.06
2022-11-09T13:48:06.903Z,12.08
2022-11-09T13:50:35.061Z,12.07
2022-11-09T13:53:03.423Z,12.07
2022-11-09T13:55:39.353Z,12.07
2022-11-09T13:58:33.583Z,12.07
2022-11-09T14:01:00.435Z,12.06
2022-11-09T14:03:29.832Z,12.07
2022-11-09T14:06:00.815Z,12.07
2022-11-09T14:08:37.584Z,12.06
2022-11-09T14:11:42.032Z,12.06
2022-11-09T14:14:27.593Z,12.05
2022-11-09T14:17:15.966Z,12.04
2022-11-09T14:20:02.875Z,12.04
2022-11-09T14:22:35.182Z,12.03
2022-11-09T14:25:16.747Z,12.03
2022-11-09T14:27:50.648Z,12.04
2022-11-09T14:30:21.805Z,12.02
2022-11-09T14:32:51.459Z,12.00
2022-11-09T14:35:32.210Z,11.99
2022-11-09T14:38:01.930Z,11.99
2022-11-09T14:40:33.803Z,11.99
2022-11-09T14:43:06.737Z,11.96
2022-11-09T14:45:33.563Z,11.94
2022-11-09T14:48:01.039Z,11.95
2022-11-09T14:50:36.721Z,11.86
2022-11-09T14:53:05.840Z,11.90
2022-11-09T14:55:41.492Z,11.87
2022-11-09T14:58:14.891Z,11.87
2022-11-09T15:00:45.994Z,11.84
2022-11-09T15:03:30.594Z,11.80
2022-11-09T15:06:09.569Z,11.78
2022-11-09T15:08:40.492Z,11.73
2022-11-09T15:11:08.036Z,11.71
2022-11-09T15:13:40.945Z,11.67
2022-11-09T15:16:08.332Z,11.66
2022-11-09T15:18:41.992Z,11.62
2022-11-09T15:21:17.534Z,11.59
2022-11-09T15:23:49.947Z,11.55
2022-11-09T15:26:36.836Z,11.52
2022-11-09T15:29:28.934Z,11.45
2022-11-09T15:32:20.162Z,11.40
2022-11-09T15:34:53.225Z,11.36
2022-11-09T15:37:28.776Z,11.30
2022-11-09T15:39:57.562Z,11.27
2022-11-09T15:42:26.365Z,11.20
2022-11-09T15:44:55.906Z,11.17
2022-11-09T15:47:33.618Z,11.13
2022-11-09T15:50:02.753Z,11.09
2022-11-09T15:52:29.974Z,11.07
2022-11-09T15:54:56.995Z,11.02
2022-11-09T15:57:24.033Z,10.98
2022-11-09T15:59:51.815Z,10.97
2022-11-09T16:02:21.803Z,10.92
2022-11-09T16:04:49.159Z,10.89
2022-11-09T16:07:17.065Z,10.86
2022-11-09T16:09:44.165Z,10.82
2022-11-09T16:12:11.261Z,10.82
2022-11-09T16:14:38.852Z,10.79
2022-11-09T16:17:06.511Z,10.75
2022-11-09T16:19:34.216Z,10.74
2022-11-09T16:22:02.834Z,10.73
2022-11-09T16:24:30.331Z,10.67
2022-11-09T16:26:57.851Z,10.66
2022-11-09T16:29:28.539Z,10.64
2022-11-09T16:31:56.536Z,10.63
2022-11-09T16:34:23.995Z,10.59
2022-11-09T16:36:56.645Z,10.58
2022-11-09T16:39:25.835Z,10.55
2022-11-09T16:41:54.702Z,10.52
2022-11-09T16:44:24.438Z,10.51
2022-11-09T16:46:52.565Z,10.48
2022-11-09T16:49:20.197Z,10.47
2022-11-09T16:51:47.638Z,10.46
2022-11-09T16:54:16.885Z,10.42
2022-11-09T16:56:47.810Z,10.40
2022-11-09T16:59:15.548Z,10.38
2022-11-09T17:01:43.026Z,10.33
2022-11-09T17:04:14.805Z,10.33
2022-11-09T17:06:43.636Z,10.30
2022-11-09T17:09:11.385Z,10.26
2022-11-09T17:11:40.925Z,10.23
2022-11-09T17:14:08.601Z,10.21
2022-11-09T17:16:36.879Z,10.19
2022-11-09T17:19:06.383Z,10.17
2022-11-09T17:21:34.654Z,10.16
2022-11-09T17:24:04.770Z,10.16
2022-11-09T17:26:33.443Z,10.13
2022-11-09T17:29:01.656Z,10.16
2022-11-09T17:31:35.076Z,10.14
2022-11-09T17:34:03.499Z,10.09
2022-11-09T17:36:57.367Z,10.08
2022-11-09T17:39:21.257Z,10.00
2022-11-09T17:41:49.230Z,9.99
2022-11-09T17:44:17.699Z,10.05
2022-11-09T17:46:46.159Z,10.04
2022-11-09T17:49:14.023Z,10.03
2022-11-09T17:51:42.069Z,10.05
2022-11-09T17:54:09.654Z,10.02
2022-11-09T17:56:37.614Z,10.01
2022-11-09T17:59:05.685Z,9.96
2022-11-09T18:01:38.039Z,9.97
2022-11-09T18:04:11.937Z,9.98
2022-11-09T18:06:39.822Z,9.93
2022-11-09T18:11:56.190Z,9.89
2022-11-09T18:14:23.967Z,9.85
2022-11-09T18:16:52.892Z,9.85
2022-11-09T18:19:21.093Z,9.80
2022-11-09T18:21:49.020Z,9.78
2022-11-09T18:24:18.116Z,9.76
2022-11-09T18:26:47.027Z,9.76
2022-11-09T18:29:15.447Z,9.74
2022-11-09T18:31:43.839Z,9.70
2022-11-09T18:34:12.253Z,9.70
2022-11-09T18:36:39.452Z,9.69
2022-11-09T18:39:07.298Z,9.67
2022-11-09T18:41:34.975Z,9.65
2022-11-09T18:44:02.733Z,9.64
2022-11-09T18:46:33.172Z,9.62
2022-11-09T18:49:00.425Z,9.60
2022-11-09T18:51:27.769Z,9.63
2022-11-09T18:53:54.925Z,9.58
2022-11-09T18:56:25.433Z,9.49
2022-11-09T18:58:54.875Z,9.50
2022-11-09T19:01:23.445Z,9.48
2022-11-09T19:03:56.358Z,9.48
2022-11-09T19:06:26.727Z,9.44
2022-11-09T19:09:12.500Z,9.41
2022-11-09T19:11:40.449Z,9.41
2022-11-09T19:14:07.226Z,9.40
2022-11-09T19:16:34.430Z,9.40
2022-11-09T19:19:01.385Z,9.39
2022-11-09T19:21:39.302Z,9.41
2022-11-09T19:24:07.645Z,9.40
2022-11-09T19:26:38.772Z,9.39
2022-11-09T19:29:07.856Z,9.38
2022-11-09T19:31:35.848Z,9.40
2022-11-09T19:34:03.770Z,9.43
2022-11-09T19:36:31.720Z,9.43
2022-11-09T19:38:59.241Z,9.46
2022-11-09T19:41:26.655Z,9.49
2022-11-09T19:43:56.360Z,9.48
2022-11-09T19:46:23.689Z,9.52
2022-11-09T19:48:51.032Z,9.52
2022-11-09T19:51:18.508Z,9.56
2022-11-09T19:53:52.996Z,9.56
2022-11-09T19:56:22.171Z,9.59
2022-11-09T19:58:54.022Z,9.59
2022-11-09T20:01:21.782Z,9.62
2022-11-09T20:03:53.768Z,9.63
2022-11-09T20:06:22.223Z,9.65
2022-11-09T20:08:50.068Z,9.68
2022-11-09T20:11:38.936Z,9.68
2022-11-09T20:14:07.807Z,9.70
2022-11-09T20:16:35.894Z,9.72
2022-11-09T20:19:05.258Z,9.73
2022-11-09T20:21:36.179Z,9.75
2022-11-09T20:24:04.084Z,9.76
2022-11-09T20:26:31.383Z,9.78
2022-11-09T20:28:58.893Z,9.78
2022-11-09T20:31:26.271Z,9.79
2022-11-09T20:33:53.612Z,9.81
2022-11-09T20:36:20.969Z,9.83
2022-11-09T20:38:48.757Z,9.84
2022-11-09T20:41:15.604Z,9.86
2022-11-09T20:43:42.881Z,9.86
2022-11-09T20:46:16.638Z,9.87
2022-11-09T20:48:59.583Z,9.91
2022-11-09T20:51:26.883Z,9.90
2022-11-09T20:53:54.105Z,9.92
2022-11-09T20:56:22.096Z,9.88
2022-11-09T20:58:49.810Z,9.86
2022-11-09T21:01:27.173Z,9.90
2022-11-09T21:03:54.209Z,9.90
2022-11-09T21:06:22.508Z,9.89
2022-11-09T21:08:54.904Z,9.91
2022-11-09T21:11:24.266Z,9.91
2022-11-09T21:13:52.346Z,9.91
2022-11-09T21:16:20.275Z,9.92
2022-11-09T21:18:47.490Z,9.95
2022-11-09T21:21:18.696Z,9.92
2022-11-09T21:24:04.486Z,9.93
2022-11-09T21:26:49.931Z,9.93
2022-11-09T21:29:42.088Z,9.95
2022-11-09T21:32:11.425Z,9.97
2022-11-09T21:34:38.423Z,9.97
2022-11-09T21:37:05.482Z,9.99
2022-11-09T21:39:32.733Z,9.97
2022-11-09T21:42:00.013Z,9.99
2022-11-09T21:44:31.702Z,9.99
2022-11-09T21:46:59.406Z,10.00
2022-11-09T21:49:26.429Z,10.00
2022-11-09T21:51:54.267Z,10.02
2022-11-09T21:54:21.764Z,10.01
2022-11-09T21:56:49.187Z,10.03
2022-11-09T21:59:16.348Z,10.03
2022-11-09T22:01:43.917Z,10.03
2022-11-09T22:04:11.329Z,10.04
2022-11-09T22:06:39.802Z,10.06
2022-11-09T22:09:08.256Z,10.03
2022-11-09T22:11:53.582Z,10.05
2022-11-09T22:14:39.421Z,10.05
2022-11-09T22:17:08.757Z,10.07
2022-11-09T22:19:56.605Z,10.06
2022-11-09T22:22:24.025Z,10.05
2022-11-09T22:24:50.885Z,10.06
2022-11-09T22:27:17.966Z,10.07
2022-11-09T22:29:44.756Z,10.06
2022-11-09T22:32:11.531Z,10.06
2022-11-09T22:34:38.307Z,10.06
2022-11-09T22:37:05.139Z,10.06
2022-11-09T22:39:32.086Z,10.07
2022-11-09T22:41:58.948Z,10.06
2022-11-09T22:44:25.942Z,10.07
2022-11-09T22:46:52.784Z,10.07
2022-11-09T22:49:19.717Z,10.07
2022-11-09T22:51:46.533Z,10.07
2022-11-09T22:54:13.755Z,10.08
2022-11-09T22:56:40.566Z,10.08
2022-11-09T22:59:07.936Z,10.09
2022-11-09T23:01:34.862Z,10.08
2022-11-09T23:04:01.865Z,10.09
2022-11-09T23:06:29.340Z,10.07
2022-11-09T23:08:56.186Z,10.06
2022-11-09T23:11:23.471Z,10.07
2022-11-09T23:13:52.171Z,10.02
2022-11-09T23:16:19.821Z,10.05
2022-11-09T23:18:55.983Z,10.07
2022-11-09T23:21:32.155Z,10.06
2022-11-09T23:24:01.893Z,10.07
2022-11-09T23:26:30.002Z,10.07
2022-11-09T23:28:57.229Z,10.07
2022-11-09T23:31:24.926Z,10.05
2022-11-09T23:33:54.615Z,10.05
2022-11-09T23:36:23.299Z,10.04
2022-11-09T23:38:50.413Z,10.03
2022-11-09T23:41:18.091Z,10.05
2022-11-09T23:43:49.287Z,10.06
2022-11-09T23:46:17.521Z,10.06
2022-11-09T23:48:44.355Z,10.08
2022-11-09T23:51:11.352Z,10.08
2022-11-09T23:53:38.462Z,10.08
2022-11-09T23:56:11.015Z,10.08
2022-11-09T23:58:38.318Z,10.09
